Accueil
METAR-TAF:

METAR-TAF

Aéroports :

Sabadell, Espagne

latitude: 41-31N, longitude: 002-06E, altitude: 250 m

Observation

Le bulletin a été fait il y a 22 minutes, à 08:30 UTC
Vent 2 kt de direction variable
Température 25°C
Humidité 57%
Pression 1018 hPa
Visibilité 10 km ou plus
Quelques nuages à une hauteur de 2500 ft
Nuages épars à une hauteur de 6000 ft

METAR: LELL 240830Z VRB02KT 9999 FEW025 SCT060 25/16 Q1018 RERA

Heure: 10:52 (08:52 UTC)

Prévision

Le bulletin a été fait il y a 52 minutes, à 08:00 UTC
Prévision valable du 24 à 09 UTC au 25 à 09 UTC
Vent 4 kt de sud-ouest
Visibilité 10 km ou plus
Quelques nuages à une hauteur de 3000 ft
Evoluant progressivement
du 24 à 10 UTC au 24 à 12 UTC
Vent 10 kt de sud
Evoluant progressivement
du 24 à 18 UTC au 24 à 20 UTC
Vent 3 kt de direction variable

TAF: LELL 240800Z 2409/2509 23004KT 9999 FEW030 TX33/2413Z TN21/2505Z BECMG 2410/2412 18010KT BECMG 2418/2420 VRB03KT

Observations et prévisions météorologiques de plus de 4000 aéroports (messages METAR et TAF).

Les stations disponibles sont représentées par des disques jaunes et rouges sur la carte.

Passer la souris dessus pour voir le nom de la station.

Cliquer dessus pour voir les observations et prévisions météorologiques.

Pour changer de carte: cliquez sur les boutons verts avec une croix noire pour zoomer, sur le bouton vert avec un tiret pour effectuer un zoom arrière, ou sur les flèches vertes pour les cartes adjacentes.


METAR-TAF: